Time;durP1;ratioP1;P1;durP2;ratioP2;P2;SDS_P1;SDS_P2;PMS_P1;PMS_P2;Temp;Humidity;BMP_temperature;BMP_pressure;BME280_temperature;BME280_humidity;BME280_pressure;Samples;Min_cycle;Max_cycle;Signal;HPM_P1;HPM_P2
2021/09/09 00:00:19;;;;;;;1018.70;929.22;;;;;;;12.71;70.55;94004.31;5072949;28;20386;-46
2021/09/09 00:02:44;;;;;;;1028.68;934.40;;;;;;;12.67;70.54;93990.06;5072581;28;20509;-45
2021/09/09 00:05:10;;;;;;;1031.88;939.85;;;;;;;12.67;70.59;93996.34;5072577;28;20021;-46
2021/09/09 00:07:36;;;;;;;1013.75;925.38;;;;;;;12.67;70.57;93995.59;5072530;28;20029;-46
2021/09/09 00:10:03;;;;;;;1052.50;958.20;;;;;;;12.66;70.48;93999.66;5072437;28;20079;-47
2021/09/09 00:12:29;;;;;;;1039.63;947.08;;;;;;;12.64;70.74;94003.00;5072294;28;20117;-48
2021/09/09 00:14:54;;;;;;;1050.75;955.35;;;;;;;12.59;71.28;93998.34;5072269;28;20032;-46
2021/09/09 00:17:20;;;;;;;1016.13;926.47;;;;;;;12.55;71.04;93992.44;5072260;28;20028;-46
2021/09/09 00:19:45;;;;;;;1014.35;926.78;;;;;;;12.55;70.82;93997.22;5072585;28;20024;-46
2021/09/09 00:22:11;;;;;;;1043.00;951.30;;;;;;;12.53;71.42;93995.00;5072214;28;20032;-47
2021/09/09 00:24:36;;;;;;;1030.22;937.00;;;;;;;12.49;70.87;93999.44;5072421;28;20024;-46
2021/09/09 00:27:02;;;;;;;1052.30;957.53;;;;;;;12.51;71.66;93996.84;5072480;28;20478;-49
2021/09/09 00:29:27;;;;;;;1064.60;967.15;;;;;;;12.46;71.85;93997.75;5072032;28;20032;-48
2021/09/09 00:31:53;;;;;;;1062.28;965.00;;;;;;;12.49;71.92;93993.88;5072053;28;20163;-47
2021/09/09 00:34:18;;;;;;;1038.95;940.97;;;;;;;12.49;71.98;93994.63;5071989;28;20059;-48
2021/09/09 00:36:44;;;;;;;1061.80;965.83;;;;;;;12.59;71.77;93992.06;5077271;28;20081;-48
2021/09/09 00:39:10;;;;;;;1070.47;973.22;;;;;;;12.58;71.62;93998.91;5092439;28;20020;-49
2021/09/09 00:41:35;;;;;;;1025.07;932.70;;;;;;;12.57;71.72;93997.41;5091964;28;20027;-48
2021/09/09 00:44:01;;;;;;;1024.85;932.08;;;;;;;12.52;71.94;93993.53;5092076;28;20028;-50
2021/09/09 00:46:27;;;;;;;1065.93;967.70;;;;;;;12.47;72.18;93997.22;5092239;28;20055;-49
2021/09/09 00:48:52;;;;;;;1080.97;979.28;;;;;;;12.40;72.13;93995.16;5092137;28;20684;-48
2021/09/09 00:51:18;;;;;;;1051.05;954.03;;;;;;;12.39;72.28;93992.94;5073333;28;20025;-48
2021/09/09 00:53:44;;;;;;;1054.82;956.05;;;;;;;12.46;72.02;93989.44;5080126;28;20016;-48
2021/09/09 00:56:11;;;;;;;1087.30;984.60;;;;;;;12.51;72.24;93994.06;5091632;28;20043;-48
2021/09/09 00:58:39;;;;;;;1084.72;984.72;;;;;;;12.42;72.43;93984.25;5090406;28;20413;-51
2021/09/09 01:01:05;;;;;;;1046.68;952.17;;;;;;;12.44;72.48;93990.00;5092024;28;20016;-46
2021/09/09 01:03:30;;;;;;;1069.35;970.15;;;;;;;12.48;72.64;93995.91;5090345;28;20047;-44
2021/09/09 01:05:56;;;;;;;1096.20;988.78;;;;;;;12.51;72.29;93994.06;5091869;28;20103;-44
2021/09/09 01:08:21;;;;;;;1051.38;954.85;;;;;;;12.48;72.23;93992.38;5107704;28;20043;-44
2021/09/09 01:10:47;;;;;;;1074.15;975.63;;;;;;;12.42;73.08;93989.78;5091592;28;20028;-44
2021/09/09 01:13:12;;;;;;;1080.25;977.40;;;;;;;12.46;72.80;93995.72;5091522;28;20024;-47
2021/09/09 01:15:42;;;;;;;1082.97;981.75;;;;;;;12.50;72.36;94000.88;5091388;28;20039;-45
2021/09/09 01:18:12;;;;;;;1066.45;968.20;;;;;;;12.48;72.51;93998.69;5091317;28;20024;-45
2021/09/09 01:20:38;;;;;;;1082.55;985.50;;;;;;;12.50;72.03;94003.66;5091244;28;20035;-46
2021/09/09 01:23:04;;;;;;;1069.65;974.30;;;;;;;12.48;72.53;94001.44;5091528;28;20031;-46
2021/09/09 01:25:30;;;;;;;1092.70;987.92;;;;;;;12.32;73.11;94005.44;5091593;28;20032;-46
2021/09/09 01:27:55;;;;;;;1073.38;972.38;;;;;;;12.29;72.79;93984.38;5090948;28;20109;-45
2021/09/09 01:30:21;;;;;;;1085.43;983.65;;;;;;;12.38;72.82;94006.03;5091098;28;20400;-46
2021/09/09 01:32:47;;;;;;;1093.70;988.60;;;;;;;12.45;72.47;94008.06;5090924;28;20028;-45
2021/09/09 01:35:12;;;;;;;1083.57;980.53;;;;;;;12.41;72.26;94001.44;5091095;28;20036;-46
2021/09/09 01:37:38;;;;;;;1082.93;980.83;;;;;;;12.42;72.81;94005.66;5077893;28;20032;-45
2021/09/09 01:40:04;;;;;;;1075.47;974.03;;;;;;;12.44;72.54;94005.84;5070962;28;20024;-45
2021/09/09 01:42:29;;;;;;;1070.32;972.10;;;;;;;12.44;72.47;93992.75;5070947;28;20409;-44
2021/09/09 01:44:55;;;;;;;1088.00;985.22;;;;;;;12.42;72.48;93992.56;5086601;28;20032;-45
2021/09/09 01:47:20;;;;;;;1095.70;995.25;;;;;;;12.37;72.72;93995.47;5087156;28;20570;-45
2021/09/09 01:49:46;;;;;;;1070.35;970.60;;;;;;;12.32;72.50;93990.88;5090978;28;20475;-45
2021/09/09 01:52:11;;;;;;;1068.32;971.20;;;;;;;12.35;72.65;94001.56;5090621;28;20027;-44
2021/09/09 01:54:37;;;;;;;1075.43;975.40;;;;;;;12.31;72.44;94001.19;5090386;28;20032;-46
2021/09/09 01:57:02;;;;;;;1073.68;977.22;;;;;;;12.28;72.76;94005.03;5090987;28;20478;-45
2021/09/09 01:59:28;;;;;;;1082.95;984.38;;;;;;;12.22;73.09;94012.78;5090618;28;20404;-46
2021/09/09 02:01:53;;;;;;;1077.13;974.83;;;;;;;12.20;73.19;94007.03;5090905;28;20028;-44
2021/09/09 02:04:19;;;;;;;1099.45;994.88;;;;;;;12.13;73.16;94016.03;5090811;28;20028;-45
2021/09/09 02:06:44;;;;;;;1096.15;996.45;;;;;;;12.13;73.14;94011.25;5090417;28;20020;-44
2021/09/09 02:09:10;;;;;;;1101.38;996.55;;;;;;;12.16;73.18;94014.97;5090446;28;20035;-47
2021/09/09 02:11:35;;;;;;;1101.07;998.10;;;;;;;12.09;73.13;94010.84;5090431;28;20024;-45
2021/09/09 02:14:01;;;;;;;1099.53;994.75;;;;;;;12.02;73.72;94014.31;5090450;28;20024;-44
2021/09/09 02:16:27;;;;;;;1097.50;991.92;;;;;;;12.02;73.46;94011.56;5090326;28;20024;-45
2021/09/09 02:18:52;;;;;;;1093.35;989.60;;;;;;;12.06;73.50;94002.91;5090301;28;20028;-45
2021/09/09 02:21:18;;;;;;;1106.88;999.90;;;;;;;12.07;73.25;94002.38;5090236;28;20035;-45
2021/09/09 02:23:43;;;;;;;1101.57;996.97;;;;;;;12.07;73.28;94005.13;5090323;28;20031;-44
2021/09/09 02:26:09;;;;;;;1100.55;995.20;;;;;;;12.08;73.15;94006.59;5090306;28;20090;-44
2021/09/09 02:28:34;;;;;;;1082.95;982.15;;;;;;;12.06;73.45;93998.09;5090499;28;20028;-45
2021/09/09 02:31:00;;;;;;;1105.00;998.80;;;;;;;11.98;73.30;94008.41;5090460;28;20050;-46
2021/09/09 02:33:25;;;;;;;1064.15;966.08;;;;;;;11.93;73.44;94006.50;5090183;28;20416;-46
2021/09/09 02:35:51;;;;;;;1087.45;987.65;;;;;;;11.83;73.62;94008.31;5090201;28;20028;-45
2021/09/09 02:38:16;;;;;;;1088.75;988.10;;;;;;;11.86;73.36;94001.69;5071999;28;20082;-45
2021/09/09 02:40:42;;;;;;;1119.95;999.90;;;;;;;11.89;73.56;93997.81;5072121;28;20047;-45
2021/09/09 02:43:08;;;;;;;1071.45;972.40;;;;;;;11.90;73.45;94007.63;5077018;28;20494;-46
2021/09/09 02:45:33;;;;;;;1086.35;984.47;;;;;;;11.82;73.62;94001.31;5074125;28;20033;-45
2021/09/09 02:47:59;;;;;;;1124.07;999.90;;;;;;;11.83;73.51;93997.22;5074328;28;20030;-46
2021/09/09 02:50:24;;;;;;;1099.00;994.60;;;;;;;11.88;73.56;94007.41;5073942;28;20528;-44
2021/09/09 02:52:50;;;;;;;1131.45;999.90;;;;;;;11.87;73.68;94013.47;5075192;28;20037;-44
2021/09/09 02:55:15;;;;;;;1098.82;994.97;;;;;;;11.84;73.77;94009.78;5094060;28;20043;-46
2021/09/09 02:57:41;;;;;;;1094.35;993.08;;;;;;;11.67;73.83;93990.13;5094505;28;20421;-46
2021/09/09 03:00:07;;;;;;;1147.72;999.90;;;;;;;11.73;74.34;94012.84;5094017;28;20410;-47
2021/09/09 03:02:33;;;;;;;1098.15;994.80;;;;;;;11.74;74.12;94008.78;5094441;28;20477;-44
2021/09/09 03:04:58;;;;;;;1119.40;999.90;;;;;;;11.75;74.40;94009.53;5094220;28;20032;-46
2021/09/09 03:07:24;;;;;;;1125.45;999.90;;;;;;;11.76;74.43;94011.03;5093928;28;20547;-45
2021/09/09 03:09:49;;;;;;;1154.65;999.90;;;;;;;11.66;74.62;93999.66;5093792;28;20028;-44
2021/09/09 03:12:15;;;;;;;1141.97;999.90;;;;;;;11.59;74.84;94002.38;5093880;28;20028;-46
2021/09/09 03:14:40;;;;;;;1118.72;999.38;;;;;;;11.52;74.92;94000.31;5093769;28;20035;-45
2021/09/09 03:17:06;;;;;;;1156.82;999.90;;;;;;;11.44;74.81;93989.19;5094020;28;20028;-44
2021/09/09 03:19:31;;;;;;;1162.72;999.90;;;;;;;11.50;75.13;93989.78;5093730;28;20028;-44
2021/09/09 03:21:57;;;;;;;1133.53;999.90;;;;;;;11.52;75.08;93994.78;5093929;28;20043;-45
2021/09/09 03:24:22;;;;;;;1137.22;999.90;;;;;;;11.47;75.43;93984.59;5093644;28;20028;-44
2021/09/09 03:26:49;;;;;;;1142.78;999.90;;;;;;;11.63;74.51;93994.50;5093385;28;20166;-46
2021/09/09 03:29:15;;;;;;;1154.65;999.90;;;;;;;11.66;74.70;93996.91;5093373;28;20024;-46
2021/09/09 03:31:40;;;;;;;1131.13;999.90;;;;;;;11.72;74.16;93999.53;5093759;28;20039;-46
2021/09/09 03:34:06;;;;;;;1139.72;999.90;;;;;;;11.66;74.44;94005.19;5093285;28;20016;-45
2021/09/09 03:36:31;;;;;;;1117.07;999.90;;;;;;;11.57;73.85;94000.16;5089908;28;20020;-46
2021/09/09 03:38:57;;;;;;;1116.63;999.90;;;;;;;11.44;74.38;94006.50;5082138;28;20117;-45
2021/09/09 03:41:22;;;;;;;1139.25;999.90;;;;;;;11.28;75.14;94006.94;5093582;28;20043;-45
2021/09/09 03:43:48;;;;;;;1126.00;999.90;;;;;;;11.26;75.74;94009.50;5093009;28;20024;-44
2021/09/09 03:46:14;;;;;;;1173.55;999.90;;;;;;;11.14;76.09;94002.75;5092479;28;20024;-45
2021/09/09 03:48:39;;;;;;;1150.32;999.90;;;;;;;11.27;76.27;94005.44;5091653;28;20493;-45
2021/09/09 03:51:05;;;;;;;1150.90;999.90;;;;;;;11.20;75.96;93978.47;5091150;28;20467;-45
2021/09/09 03:53:30;;;;;;;1182.20;999.90;;;;;;;11.35;75.52;93997.94;5091174;28;20038;-44
2021/09/09 03:55:56;;;;;;;1174.78;999.90;;;;;;;11.39;75.78;94004.63;5091001;28;20044;-45
2021/09/09 03:58:21;;;;;;;1190.25;999.90;;;;;;;11.40;75.70;94008.88;5091521;28;20020;-45
2021/09/09 04:00:46;;;;;;;1211.32;999.90;;;;;;;11.31;76.16;94001.06;5091736;28;20493;-45
2021/09/09 04:03:12;;;;;;;1202.15;999.90;;;;;;;11.37;75.75;93998.16;5093268;28;20024;-44
2021/09/09 04:05:38;;;;;;;1180.35;999.90;;;;;;;11.43;75.29;93996.00;5092875;28;20028;-44
2021/09/09 04:08:03;;;;;;;1196.35;999.90;;;;;;;11.50;75.19;93989.78;5092844;28;20024;-45
2021/09/09 04:10:29;;;;;;;1196.30;999.90;;;;;;;11.42;75.24;93998.03;5092686;28;20455;-45
2021/09/09 04:12:54;;;;;;;1210.90;999.90;;;;;;;11.50;75.25;93987.00;5092897;28;20493;-44
2021/09/09 04:15:20;;;;;;;1202.53;999.90;;;;;;;11.48;75.15;93978.50;5092643;28;20414;-45
2021/09/09 04:17:45;;;;;;;1196.03;999.90;;;;;;;11.46;75.23;93981.09;5092565;28;20078;-44
2021/09/09 04:20:11;;;;;;;1178.60;999.90;;;;;;;11.68;74.81;93983.31;5092514;28;20069;-44
2021/09/09 04:22:36;;;;;;;1175.18;999.90;;;;;;;11.74;74.55;93977.59;5092582;28;20039;-44
2021/09/09 04:25:05;;;;;;;1196.60;999.90;;;;;;;11.79;74.55;93971.94;5092731;28;20024;-44
2021/09/09 04:27:31;;;;;;;1202.97;999.90;;;;;;;11.78;75.05;93978.75;5092489;28;20024;-45
2021/09/09 04:29:57;;;;;;;1212.00;999.90;;;;;;;11.77;75.23;93966.22;5092501;28;20031;-47
2021/09/09 04:32:22;;;;;;;1166.22;999.90;;;;;;;11.77;74.56;93968.97;5092601;28;20100;-45
2021/09/09 04:34:48;;;;;;;1172.53;999.90;;;;;;;11.72;75.02;93960.81;5086158;28;20486;-45
2021/09/09 04:37:14;;;;;;;1196.88;999.90;;;;;;;11.69;74.95;93957.13;5081610;28;20032;-45
2021/09/09 04:39:39;;;;;;;1190.47;999.90;;;;;;;11.79;74.84;93954.59;5092198;28;20110;-44
2021/09/09 04:42:05;;;;;;;1165.32;999.90;;;;;;;11.75;74.77;93966.03;5092062;28;20470;-45
2021/09/09 04:44:31;;;;;;;1193.65;999.90;;;;;;;11.56;75.59;93964.75;5092385;28;20024;-46
2021/09/09 04:46:56;;;;;;;1210.85;999.90;;;;;;;11.63;75.36;93962.03;5092206;28;20101;-46
2021/09/09 04:49:21;;;;;;;1217.68;999.90;;;;;;;11.79;75.49;93966.41;5091867;28;20043;-46
2021/09/09 04:51:47;;;;;;;1198.18;999.90;;;;;;;11.79;75.34;93965.66;5091934;28;20114;-45
2021/09/09 04:54:12;;;;;;;1206.88;999.90;;;;;;;11.86;75.12;93964.97;5091529;28;20024;-45
2021/09/09 04:56:38;;;;;;;1228.63;999.90;;;;;;;12.00;75.17;93963.56;5091563;28;20056;-45
2021/09/09 04:59:03;;;;;;;1202.05;999.90;;;;;;;12.03;75.05;93954.19;5092061;28;20024;-44
2021/09/09 05:01:29;;;;;;;1195.70;999.90;;;;;;;12.13;75.00;93947.59;5092018;28;20417;-45
2021/09/09 05:03:54;;;;;;;1184.82;999.90;;;;;;;12.14;74.41;93942.78;5091243;28;20023;-44
2021/09/09 05:06:20;;;;;;;1191.28;999.90;;;;;;;12.22;74.11;93946.31;5091615;28;20032;-46
2021/09/09 05:08:45;;;;;;;1194.50;999.90;;;;;;;12.33;74.23;93951.53;5091812;28;20032;-47
2021/09/09 05:11:11;;;;;;;1190.40;999.90;;;;;;;12.45;73.86;93951.97;5091764;28;20028;-46
2021/09/09 05:13:38;;;;;;;1171.38;999.90;;;;;;;12.43;73.99;93946.22;5091523;28;20035;-46
2021/09/09 05:16:05;;;;;;;1184.57;999.90;;;;;;;12.38;73.88;93945.09;5091766;28;20031;-46
2021/09/09 05:18:30;;;;;;;1150.65;999.90;;;;;;;12.48;73.54;93946.06;5091433;28;20499;-46
2021/09/09 05:20:55;;;;;;;1179.30;999.90;;;;;;;12.54;73.35;93954.94;5091574;28;20032;-46
2021/09/09 05:23:21;;;;;;;1154.05;999.90;;;;;;;12.47;72.91;93930.00;5091312;28;20031;-46
2021/09/09 05:25:46;;;;;;;1135.22;999.90;;;;;;;12.56;72.94;93957.88;5091098;28;20024;-46
2021/09/09 05:28:12;;;;;;;1176.15;999.90;;;;;;;12.54;73.35;93959.75;5090648;28;20031;-45
2021/09/09 05:30:38;;;;;;;1167.47;999.90;;;;;;;12.59;73.54;93958.81;5088920;28;20504;-45
2021/09/09 05:33:03;;;;;;;1191.45;999.90;;;;;;;12.70;73.58;93953.69;5071161;28;20473;-46
2021/09/09 05:35:29;;;;;;;1182.25;999.90;;;;;;;12.87;73.08;93947.63;5071102;28;20104;-45
2021/09/09 05:37:54;;;;;;;1171.78;999.90;;;;;;;12.97;73.00;93958.91;5084801;28;20031;-47
2021/09/09 05:40:20;;;;;;;1158.57;999.90;;;;;;;13.09;72.88;93957.28;5091003;28;20024;-46
2021/09/09 05:42:45;;;;;;;1129.82;999.90;;;;;;;13.15;72.70;93953.06;5091209;28;20042;-45
2021/09/09 05:45:11;;;;;;;1112.78;999.30;;;;;;;13.28;72.25;93957.66;5087360;28;20032;-46
2021/09/09 05:47:36;;;;;;;1136.03;999.90;;;;;;;13.40;72.04;93954.00;5080470;28;20024;-47
2021/09/09 05:50:02;;;;;;;1154.35;999.90;;;;;;;13.53;72.19;93959.34;5078288;28;20109;-46
2021/09/09 05:52:27;;;;;;;1081.80;975.78;;;;;;;13.63;71.53;93963.03;5079037;28;20030;-46
2021/09/09 05:54:53;;;;;;;1093.97;979.70;;;;;;;13.78;71.09;93953.19;5080317;28;20718;-47
2021/09/09 05:57:18;;;;;;;1072.47;966.35;;;;;;;13.96;70.15;93949.28;5079948;28;20100;-45
2021/09/09 05:59:44;;;;;;;1065.65;963.22;;;;;;;14.07;69.15;93943.34;5075524;28;20016;-48
2021/09/09 06:02:14;;;;;;;1064.72;960.92;;;;;;;14.27;68.43;93942.34;5078133;28;20858;-46
2021/09/09 06:04:42;;;;;;;1073.00;966.63;;;;;;;14.42;68.31;93945.09;5077798;28;20067;-46
2021/09/09 06:07:08;;;;;;;1036.60;930.50;;;;;;;14.55;67.55;93944.84;5079991;28;20107;-46
2021/09/09 06:09:33;;;;;;;1054.68;945.90;;;;;;;14.51;67.49;93921.53;5079088;28;20108;-47
2021/09/09 06:11:59;;;;;;;1035.18;927.95;;;;;;;14.75;66.70;93940.31;5078275;28;20020;-47
2021/09/09 06:14:24;;;;;;;1060.00;946.33;;;;;;;14.80;66.25;93937.31;5079961;28;20028;-48
2021/09/09 06:16:50;;;;;;;1040.20;930.40;;;;;;;14.86;66.07;93943.38;5078458;28;20111;-46
2021/09/09 06:19:15;;;;;;;1029.35;922.55;;;;;;;14.80;66.60;93922.66;5078790;28;20024;-47
2021/09/09 06:21:40;;;;;;;1037.82;925.45;;;;;;;15.01;66.87;93948.09;5080033;28;20119;-45
2021/09/09 06:24:07;;;;;;;1068.03;951.47;;;;;;;15.03;65.18;93946.25;5078139;28;20099;-47
2021/09/09 06:26:33;;;;;;;1071.43;929.65;;;;;;;15.06;64.94;93945.13;5078951;28;20032;-45
2021/09/09 06:28:58;;;;;;;1094.15;946.00;;;;;;;15.12;64.43;93953.97;5080294;28;20078;-46
2021/09/09 06:31:23;;;;;;;1130.28;948.15;;;;;;;15.11;64.30;93955.28;5078001;28;20517;-47
2021/09/09 06:33:49;;;;;;;1109.70;933.03;;;;;;;15.13;64.27;93955.47;5077903;28;20498;-47
2021/09/09 06:36:14;;;;;;;1098.00;947.28;;;;;;;15.12;65.44;93953.97;5079924;28;20106;-46
2021/09/09 06:38:40;;;;;;;1083.15;924.78;;;;;;;15.08;65.02;93953.63;5080487;28;20038;-46
2021/09/09 06:41:05;;;;;;;1137.03;940.80;;;;;;;14.99;64.33;93948.69;5077907;28;20025;-47
2021/09/09 06:43:31;;;;;;;1064.32;938.33;;;;;;;15.04;64.00;93950.50;5083976;28;20020;-46
2021/09/09 06:45:56;;;;;;;1070.97;932.72;;;;;;;14.99;64.73;93951.47;5079145;28;20569;-45
2021/09/09 06:48:22;;;;;;;1110.88;949.50;;;;;;;14.99;64.65;93959.81;5070105;28;20406;-45
2021/09/09 06:50:47;;;;;;;1094.72;925.20;;;;;;;15.05;65.42;93962.38;5069819;28;20032;-48
2021/09/09 06:53:12;;;;;;;1129.45;928.83;;;;;;;15.06;66.00;93963.84;5074060;28;20020;-46
2021/09/09 06:55:38;;;;;;;1100.35;953.03;;;;;;;15.01;65.50;93968.31;5089989;28;20040;-45
2021/09/09 06:58:04;;;;;;;1070.60;949.00;;;;;;;15.02;64.07;93969.06;5088766;28;20101;-46
2021/09/09 07:00:29;;;;;;;1111.82;938.38;;;;;;;15.10;63.96;93972.53;5089734;28;20052;-46
2021/09/09 07:02:55;;;;;;;1224.03;953.50;;;;;;;15.13;63.76;93974.94;5088137;28;20067;-46
2021/09/09 07:05:20;;;;;;;1150.05;936.35;;;;;;;15.19;62.89;93972.66;5089470;28;20086;-45
2021/09/09 07:07:46;;;;;;;1217.75;946.55;;;;;;;15.30;63.52;93979.81;5090183;28;20481;-47
2021/09/09 07:10:11;;;;;;;1176.60;937.35;;;;;;;15.35;62.45;93981.63;5090171;28;20496;-44
2021/09/09 07:12:37;;;;;;;1205.78;929.67;;;;;;;15.38;63.01;93972.16;5089698;28;20056;-46
2021/09/09 07:15:04;;;;;;;1267.38;937.45;;;;;;;15.56;63.67;93984.09;5089641;28;20102;-46
2021/09/09 07:17:29;;;;;;;1260.85;934.63;;;;;;;15.62;62.70;93982.56;5077865;28;20038;-46
2021/09/09 07:19:55;;;;;;;1317.38;919.05;;;;;;;15.73;63.65;93986.94;5079372;28;20039;-46
2021/09/09 07:22:20;;;;;;;1342.00;918.22;;;;;;;15.98;63.03;93984.84;5077688;28;20078;-46
2021/09/09 07:24:45;;;;;;;1375.28;949.33;;;;;;;16.42;61.63;93979.38;5078258;28;20020;-46
2021/09/09 07:27:11;;;;;;;1512.03;935.00;;;;;;;16.81;61.26;93981.16;5081622;28;20028;-46
2021/09/09 07:29:36;;;;;;;1614.93;963.03;;;;;;;17.17;59.29;93980.50;5081150;28;20021;-45
2021/09/09 07:32:02;;;;;;;1420.70;992.10;;;;;;;17.28;57.29;93983.50;5082400;28;20032;-47
2021/09/09 07:34:28;;;;;;;1572.82;991.38;;;;;;;16.95;59.05;93984.34;5082631;28;20032;-45
2021/09/09 07:36:55;;;;;;;1464.53;954.42;;;;;;;16.90;59.89;93988.84;5081846;28;20027;-46
2021/09/09 07:39:21;;;;;;;1210.43;925.50;;;;;;;16.64;59.30;93973.56;5082654;28;20028;-46
2021/09/09 07:41:46;;;;;;;1294.78;951.38;;;;;;;16.84;59.51;93982.06;5082192;28;20016;-45
2021/09/09 07:44:12;;;;;;;1324.97;935.05;;;;;;;16.98;59.65;93978.34;5081022;28;20477;-46
2021/09/09 07:46:38;;;;;;;1259.75;937.58;;;;;;;16.73;59.33;93960.25;5082759;28;20034;-47
2021/09/09 07:49:04;;;;;;;1466.63;945.75;;;;;;;16.78;60.27;93971.19;5081602;28;20112;-47
2021/09/09 07:51:29;;;;;;;1483.47;961.55;;;;;;;16.96;60.64;93977.44;5081521;28;20638;-45
2021/09/09 07:53:55;;;;;;;1364.00;930.60;;;;;;;16.97;59.61;93976.13;5083385;28;20024;-47
2021/09/09 07:56:21;;;;;;;1338.82;971.15;;;;;;;16.99;59.07;93973.50;5080767;28;20048;-46
2021/09/09 07:58:49;;;;;;;1389.63;955.05;;;;;;;17.11;59.66;93980.75;5081421;28;20027;-46
2021/09/09 08:01:21;;;;;;;1479.43;950.25;;;;;;;17.16;59.04;93974.19;5082520;28;20020;-46
2021/09/09 08:03:47;;;;;;;1408.50;970.40;;;;;;;17.23;58.91;93967.75;5081929;28;20660;-45
2021/09/09 08:06:13;;;;;;;1540.22;977.67;;;;;;;17.51;58.87;93974.81;5080713;28;20039;-46
2021/09/09 08:08:39;;;;;;;1331.32;982.55;;;;;;;17.43;57.51;93976.97;5082521;28;20028;-45
2021/09/09 08:11:04;;;;;;;1569.38;992.25;;;;;;;17.59;58.54;93978.22;5081353;28;20029;-46
2021/09/09 08:13:30;;;;;;;1455.38;983.53;;;;;;;17.77;56.81;93976.81;5080971;28;20046;-45
2021/09/09 08:15:55;;;;;;;1470.15;983.45;;;;;;;17.55;57.94;93966.75;5082422;28;20130;-45
2021/09/09 08:18:21;;;;;;;1414.85;973.95;;;;;;;17.32;58.14;93971.91;5081807;28;20028;-45
2021/09/09 08:20:46;;;;;;;1267.55;959.25;;;;;;;17.30;57.19;93968.97;5082087;28;20031;-44
2021/09/09 08:23:12;;;;;;;1308.28;988.85;;;;;;;17.32;58.57;93969.88;5080193;28;20489;-45
2021/09/09 08:25:37;;;;;;;1404.30;971.13;;;;;;;17.33;59.89;93968.53;5082088;28;20023;-46
2021/09/09 08:28:06;;;;;;;1445.03;965.90;;;;;;;17.49;59.41;93968.31;5080624;28;20024;-47
2021/09/09 08:30:31;;;;;;;1443.45;967.10;;;;;;;17.80;58.42;93972.13;5080946;28;20050;-46
2021/09/09 08:32:57;;;;;;;1566.95;973.35;;;;;;;17.90;57.95;93965.25;5079840;28;20486;-45
2021/09/09 08:35:23;;;;;;;1610.90;996.47;;;;;;;18.11;55.80;93962.63;5081596;28;20478;-46
2021/09/09 08:37:49;;;;;;;1610.40;999.80;;;;;;;18.56;54.43;93963.84;5081186;28;20024;-45
2021/09/09 08:40:15;;;;;;;1811.95;999.90;;;;;;;19.18;53.44;93953.63;5079561;28;20020;-45
2021/09/09 08:42:42;;;;;;;1750.95;999.90;;;;;;;19.05;51.85;93953.34;5082071;28;20082;-46
2021/09/09 08:45:08;;;;;;;1927.18;999.90;;;;;;;19.46;53.84;93952.06;5080575;28;20047;-45
2021/09/09 08:47:38;;;;;;;1984.10;999.90;;;;;;;19.72;51.93;93950.34;5081907;28;20024;-44
2021/09/09 08:50:04;;;;;;;1999.90;999.90;;;;;;;19.83;50.20;93946.88;5078964;28;20032;-46
2021/09/09 08:52:29;;;;;;;1999.90;999.90;;;;;;;20.12;50.08;93950.28;5080331;28;20027;-45
2021/09/09 08:54:55;;;;;;;1999.90;999.90;;;;;;;20.31;50.31;93950.16;5079872;28;20394;-45
2021/09/09 08:57:21;;;;;;;1999.90;999.90;;;;;;;20.38;49.07;93943.59;5081197;28;20027;-46
2021/09/09 08:59:46;;;;;;;1932.45;999.90;;;;;;;20.46;48.46;93949.75;5080337;28;20024;-45
2021/09/09 09:02:12;;;;;;;1924.85;999.90;;;;;;;20.35;47.56;93950.44;5079711;28;20032;-46
2021/09/09 09:04:38;;;;;;;1999.90;999.90;;;;;;;20.25;47.51;93958.16;5081315;28;20055;-46
2021/09/09 09:07:06;;;;;;;1999.90;999.90;;;;;;;20.18;48.04;93954.19;5080209;28;20094;-46
2021/09/09 09:09:36;;;;;;;1998.95;999.90;;;;;;;20.12;46.98;93961.47;5080450;28;20028;-45
2021/09/09 09:12:07;;;;;;;1988.07;999.90;;;;;;;19.95;47.99;93961.72;5081296;28;20106;-45
2021/09/09 09:14:32;;;;;;;1840.20;999.90;;;;;;;19.98;46.46;93960.53;5080030;28;20025;-45
2021/09/09 09:17:00;;;;;;;1864.88;999.90;;;;;;;19.91;47.91;93953.03;5082130;28;20032;-46
2021/09/09 09:19:44;;;;;;;1957.10;999.90;;;;;;;19.89;48.54;93958.50;5079448;28;20417;-47
2021/09/09 09:22:13;;;;;;;1972.60;999.90;;;;;;;19.80;48.58;93950.88;5079382;28;20020;-47
2021/09/09 09:24:42;;;;;;;;;;;;;;;19.43;48.75;93914.78;5079701;28;20020;-46
2021/09/09 09:27:17;;;;;;;1693.97;999.90;;;;;;;19.49;49.12;93957.22;5079302;28;19919;-47
2021/09/09 09:30:08;;;;;;;1909.85;999.90;;;;;;;19.50;49.45;93944.69;5078933;28;20028;-45
2021/09/09 09:32:34;;;;;;;1915.43;999.90;;;;;;;19.53;49.42;93948.38;5079852;28;20082;-45
2021/09/09 09:35:14;;;;;;;1943.18;999.90;;;;;;;19.56;49.43;93952.75;5078877;28;20028;-46
2021/09/09 09:38:11;;;;;;;1861.35;999.90;;;;;;;19.54;49.01;93956.16;5080488;28;20603;-46
2021/09/09 09:40:47;;;;;;;1947.80;999.90;;;;;;;19.54;49.55;93952.63;5078479;28;20031;-46
2021/09/09 09:43:12;;;;;;;1802.90;999.90;;;;;;;19.46;48.81;93952.81;5079638;28;20024;-46
2021/09/09 09:45:50;;;;;;;1716.90;999.90;;;;;;;19.18;49.22;93941.69;5079461;28;20024;-46
2021/09/09 09:48:25;;;;;;;1693.63;999.90;;;;;;;19.13;50.22;93953.91;5080211;28;20449;-47
2021/09/09 09:50:51;;;;;;;1793.65;999.90;;;;;;;18.90;50.01;93935.56;5079239;28;20021;-46
2021/09/09 09:53:18;;;;;;;1672.57;999.90;;;;;;;18.87;50.31;93953.53;5078477;28;20097;-45
2021/09/09 10:07:14;;;;;;;1999.90;999.90;;;;;;;18.70;51.47;93944.56;5118796;27;20613;-46
2021/09/09 10:09:40;;;;;;;1999.90;999.90;;;;;;;18.56;51.71;93946.34;5116417;27;20595;-47
2021/09/09 10:12:10;;;;;;;1999.90;999.90;;;;;;;18.43;52.95;93944.69;5116478;28;20515;-48
2021/09/09 10:14:49;;;;;;;1977.03;999.90;;;;;;;18.44;52.68;93942.63;5116875;27;20019;-46
2021/09/09 10:17:19;;;;;;;1991.80;999.90;;;;;;;18.44;53.74;93956.63;5115869;28;20488;-46
2021/09/09 10:19:44;;;;;;;1987.95;999.90;;;;;;;18.46;53.45;93948.41;5114488;28;20027;-46
2021/09/09 10:22:12;;;;;;;1999.15;999.90;;;;;;;18.45;53.39;93947.66;5117512;27;20019;-48
2021/09/09 10:24:48;;;;;;;1961.85;999.90;;;;;;;18.32;53.24;93922.91;5117307;28;20480;-47
2021/09/09 10:27:21;;;;;;;1812.75;999.90;;;;;;;18.36;52.51;93950.44;5116669;28;20024;-46
2021/09/09 10:30:06;;;;;;;1872.00;999.90;;;;;;;18.32;52.54;93959.25;5117794;27;20020;-46
2021/09/09 10:32:31;;;;;;;1880.20;999.90;;;;;;;18.32;52.68;93950.88;5115800;28;20019;-47
2021/09/09 10:35:18;;;;;;;1888.25;999.90;;;;;;;18.40;52.87;93943.09;5116295;27;20011;-47
2021/09/09 10:37:55;;;;;;;1806.03;999.90;;;;;;;18.51;52.33;93936.94;5117362;28;20034;-47
2021/09/09 10:40:35;;;;;;;1789.20;999.90;;;;;;;18.54;51.67;93932.94;5117299;28;20094;-47
2021/09/09 10:43:06;;;;;;;1844.45;999.90;;;;;;;18.76;51.60;93936.59;5116172;28;20606;-46
2021/09/09 10:45:43;;;;;;;1841.38;999.90;;;;;;;18.91;50.60;93941.88;5115608;28;20011;-45
2021/09/09 10:48:19;;;;;;;1905.05;999.90;;;;;;;19.12;51.09;93939.19;5115266;28;20077;-48
2021/09/09 10:51:17;;;;;;;1876.97;999.90;;;;;;;19.15;50.56;93948.44;5115494;27;20107;-48
2021/09/09 10:53:56;;;;;;;1803.22;999.90;;;;;;;19.23;50.44;93946.94;5117438;28;20081;-49
2021/09/09 10:56:26;;;;;;;1813.47;999.90;;;;;;;19.34;49.82;93942.81;5117142;28;20012;-47
2021/09/09 10:59:15;;;;;;;1933.95;999.90;;;;;;;19.42;50.73;93938.53;5115760;28;20408;-47
2021/09/09 11:01:45;;;;;;;1683.63;999.90;;;;;;;19.48;49.25;93930.53;5116804;28;20027;-47
2021/09/09 11:04:32;;;;;;;1775.75;999.90;;;;;;;19.60;48.95;93939.75;5116032;28;20522;-50